Maljamar, NM (88264)

8:00 AM MST on January 17, 2018 (GMT -0700)
Lea County Regional | | Change Station

Elev 3661 ft 32.69 °N, 103.22 °W | Updated 10 minutes ago

Scattered Clouds
Scattered Clouds
16 °F
Feels Like 9 °F
N
5
Wind Variable Wind from South

Today
High -- | Low -- °F
--% Chance of Precip.
Yesterday
High -- | Low -- °F
Precip. -- in
Pressure 30.48 in
Visibility 10.0 miles
Clouds Scattered Clouds 3700 ft
Windchill 9 °F
Dew Point 0 °F
Humidity 49%
Rainfall 0.00 in
Snow Depth Not available.
6:57 AM 5:13 PM
New Moon, 0% visible
METAR KHOB 171450Z 18004KT 10SM SCT037 M09/M18 A3048
Pressure 30.48 in
Visibility 10.0 miles
Clouds Scattered Clouds 3700 ft
Windchill 9 °F
Dew Point 0 °F
Humidity 49%
Rainfall 0.00 in
Snow Depth Not available.
6:57 AM 5:13 PM
New Moon, 0% visible
METAR KHOB 171450Z 18004KT 10SM SCT037 M09/M18 A3048

Get Severe Weather Alerts

Thanks for signing up!

Be on the lookout for a verification email in your inbox.

You'll start receiving the daily forecast at 6 AM.

×

10-Day Weather Forecast

Almanac

Astronomy

Jan. 17, 2018 Rise Set
Actual Time
Civil Twilight
Nautical Twilight
Astronomical Twilight
Moon
Length of Visible Light
Length of Day
Tomorrow will be .
, % of the Moon is Illuminated

Today's Extremes

State Highs State Lows

Community

WunderPhotos

Category 6

Welcome to Category 6. This is the collective home for Weather Underground's featured writeups by Dr. Jeff Masters (right), Bob Henson (left), Chris Burt, and other regular contributors.

Nearby

Air Quality

  Air Quality AQ Index Pollutant
Not available.

Snow Depth

Station Depth Elevation

Earthquake Activity

City Distance Mag. Time & Date
Minimum magnitude displayed is 2.5.

Coastal Water Temperatures

Place Temperature

Stations

Nearby Weather Stations

Station Location Temp. Windchill Dew Point Humidity Wind Precip. Elev Updated Type
                   

Watches & Warnings

There are currently no watches in effect.